Peru, Illinois
Current Conditions -  °F | °C
As of 4:35 AM on Monday 26 Jan 2015 (Local Time) from KVYS Reporting Station
Clear Clear  
Wind Chill:   Ceiling: Unl
Heat Index: 14°   Visibility: 10mi
Dew Point: 11°   Wind: 6mph
Humidity: 88%   Direction: 310°NW
Pressure: 30"   Gusts: NA
Location:  41.33°N, 89.12°W
Report Text: KVYS 261035Z AUTO 31005KT 10SM CLR M10/M11 A3000 RMK AO2 T10981114
Loading
Personal Weather Stations






























Interactive Weather Map New forecast layout! Learn more

10-Day Weather Forecast

Advertisements
Track Severe Weather on mobile